Terminal Aerodrome Forecast
Issued by NWS

Home | Current Version | Previous Version | Text Only | Print | Product List | Glossary On
Versions: 1 2 3 4 5 6 7 8 9 10 11 12 13 14 15 16 17 18
000
FTUS46 KMTR 230500
TAFSNS
TAF
KSNS 230536Z 2306/2406 27007KT P6SM OVC015
     FM231000 27005KT P6SM OVC007
      TEMPO 2310/2314 -DZ
     FM231800 29012KT P6SM FEW012
     FM240200 29009KT P6SM OVC009=

USA.gov is the U.S. government's official web portal to all federal, state and local government web resources and services.